Alys Beach, Florida
Current Conditions -  °F | °C
As of 7:25 AM on Saturday 20 Dec 2014 (Local Time) from KECP Reporting Station
Overcast Overcast  
Wind Chill: 50°   Ceiling: 5500
Heat Index: 50°   Visibility: 10mi
Dew Point: 46°   Wind: 9mph
Humidity: 87%   Direction: 350°N
Pressure: 30.14"   Gusts: NA
Location:  30.2534°N, 85.9486°W
Report Text: KECP 201325Z 35008KT 10SM FEW008 OVC055 10/08 A3014 RMK AO2
Loading
Personal Weather Stations






























Interactive Weather Map New forecast layout! Learn more

10-Day Weather Forecast

Advertisements
Track Severe Weather on mobile